Terminal Aerodrome Forecast
Issued by NWS Charleston, SC

Home | Current Version | Previous Version | Text Only | Print | Product List | Glossary On
Versions: 1 2 3 4 5 6 7 8 9 10 11 12 13 14 15 16 17 18 19 20 21 22 23 24 25 26
000
FTUS42 KCHS 191131
TAFSAV
TAF
KSAV 191131Z 1912/2012 17005KT 2SM SHRA BR BKN007 OVC030
     FM191500 19010KT P6SM SCT025 BKN060
      TEMPO 1920/1924 2SM +TSRA BR SCT008 BKN015CB
     FM200000 21006KT P6SM SCT015 BKN120=

USA.gov is the U.S. government's official web portal to all federal, state and local government web resources and services.